createdAt,value
2023-03-26T00:02:03.738Z,95664.56
2023-03-26T00:05:06.951Z,95665.56
2023-03-26T00:08:11.088Z,95669.03
2023-03-26T00:11:16.040Z,95666.53
2023-03-26T00:14:21.376Z,95660.09
2023-03-26T00:17:26.302Z,95663.72
2023-03-26T00:20:38.849Z,95667.09
2023-03-26T00:23:43.771Z,95661.59
2023-03-26T00:26:55.905Z,95654.09
2023-03-26T00:30:00.499Z,95667.75
2023-03-26T00:33:03.149Z,95662.28
2023-03-26T00:36:10.181Z,95667.75
2023-03-26T00:39:14.298Z,95666.91
2023-03-26T00:42:18.541Z,95675.28
2023-03-26T00:45:23.981Z,95663.66
2023-03-26T00:48:44.125Z,95658.50
2023-03-26T00:51:48.126Z,95665.84
2023-03-26T00:54:53.750Z,95654.38
2023-03-26T00:57:58.180Z,95656.56
2023-03-26T01:01:08.705Z,95658.25
2023-03-26T01:04:31.919Z,95666.91
2023-03-26T01:07:37.130Z,95659.63
2023-03-26T01:10:40.850Z,95659.44
2023-03-26T01:13:52.246Z,95666.28
2023-03-26T01:16:59.615Z,95668.78
2023-03-26T01:20:29.335Z,95659.28
2023-03-26T01:23:41.955Z,95654.97
2023-03-26T01:26:56.562Z,95649.84
2023-03-26T01:30:21.833Z,95640.34
2023-03-26T01:33:40.416Z,95636.16
2023-03-26T01:36:58.533Z,95624.03
2023-03-26T01:40:23.874Z,95623.84
2023-03-26T01:43:46.875Z,95632.28
2023-03-26T01:46:55.625Z,95620.31
2023-03-26T01:49:59.929Z,95617.28
2023-03-26T01:53:03.012Z,95612.28
2023-03-26T01:56:21.602Z,95617.06
2023-03-26T01:59:55.051Z,95615.84
2023-03-26T02:03:20.364Z,95611.00
2023-03-26T02:06:46.157Z,95604.16
2023-03-26T02:09:53.871Z,95604.47
2023-03-26T02:13:06.886Z,95595.84
2023-03-26T02:16:18.811Z,95593.31
2023-03-26T02:19:28.044Z,95585.28
2023-03-26T02:22:32.708Z,95586.81
2023-03-26T02:25:35.793Z,95575.66
2023-03-26T02:28:38.224Z,95590.59
2023-03-26T02:31:40.052Z,95589.06
2023-03-26T02:34:43.145Z,95580.31
2023-03-26T02:37:46.882Z,95583.94
2023-03-26T02:40:51.565Z,95574.44
2023-03-26T02:43:54.671Z,95561.47
2023-03-26T02:47:00.090Z,95568.16
2023-03-26T02:50:22.050Z,95559.50
2023-03-26T02:53:43.992Z,95560.63
2023-03-26T02:57:13.022Z,95557.31
2023-03-26T03:00:34.834Z,95556.78
2023-03-26T03:03:56.642Z,95544.13
2023-03-26T03:07:18.529Z,95535.09
2023-03-26T03:10:21.946Z,95531.59
2023-03-26T03:13:46.708Z,95514.47
2023-03-26T03:16:53.838Z,95517.41
2023-03-26T03:19:57.154Z,95526.53
2023-03-26T03:22:58.851Z,95520.81
2023-03-26T03:26:02.538Z,95522.13
2023-03-26T03:29:07.847Z,95524.41
2023-03-26T03:32:10.253Z,95526.38
2023-03-26T03:35:17.924Z,95526.00
2023-03-26T03:38:27.905Z,95521.78
2023-03-26T03:41:32.151Z,95516.47
2023-03-26T03:44:38.500Z,95513.81
2023-03-26T03:47:50.057Z,95507.84
2023-03-26T03:50:59.254Z,95508.66
2023-03-26T03:54:06.445Z,95499.22
2023-03-26T03:57:29.299Z,95499.34
2023-03-26T04:00:46.221Z,95487.06
2023-03-26T04:04:19.006Z,95473.97
2023-03-26T04:07:34.466Z,95463.97
2023-03-26T04:10:46.721Z,95473.28
2023-03-26T04:14:00.731Z,95472.44
2023-03-26T04:17:31.596Z,95474.28
2023-03-26T04:20:34.189Z,95471.78
2023-03-26T04:23:40.211Z,95474.72
2023-03-26T04:26:58.147Z,95470.38
2023-03-26T04:30:08.472Z,95462.91
2023-03-26T04:33:15.596Z,95460.94
2023-03-26T04:36:23.600Z,95448.81
2023-03-26T04:39:30.127Z,95443.50
2023-03-26T04:43:00.002Z,95442.53
2023-03-26T04:46:32.963Z,95446.16
2023-03-26T04:49:47.555Z,95436.84
2023-03-26T04:52:52.135Z,95436.00
2023-03-26T04:56:33.082Z,95429.19
2023-03-26T05:00:10.985Z,95422.06
2023-03-26T05:03:16.735Z,95419.56
2023-03-26T05:06:22.882Z,95422.06
2023-03-26T05:09:31.104Z,95417.75
2023-03-26T05:12:49.375Z,95401.84
2023-03-26T05:16:03.344Z,95393.88
2023-03-26T05:19:39.969Z,95388.59
2023-03-26T05:22:44.432Z,95394.56
2023-03-26T05:26:04.221Z,95400.72
2023-03-26T05:29:10.568Z,95391.94
2023-03-26T05:32:22.404Z,95384.47
2023-03-26T05:35:28.558Z,95369.41
2023-03-26T05:38:34.581Z,95360.63
2023-03-26T05:41:42.091Z,95349.03
2023-03-26T05:44:45.617Z,95354.88
2023-03-26T05:47:56.739Z,95344.09
2023-03-26T05:51:03.077Z,95348.44
2023-03-26T05:54:12.577Z,95352.13
2023-03-26T05:57:36.169Z,95355.31
2023-03-26T06:01:17.236Z,95351.34
2023-03-26T06:04:45.844Z,95338.78
2023-03-26T06:08:07.298Z,95333.88
2023-03-26T06:11:15.983Z,95334.25
2023-03-26T06:14:30.908Z,95331.97
2023-03-26T06:17:57.930Z,95324.34
2023-03-26T06:21:13.434Z,95321.91
2023-03-26T06:24:24.795Z,95314.34
2023-03-26T06:27:40.599Z,95306.88
2023-03-26T06:31:27.765Z,95311.41
2023-03-26T06:34:48.082Z,95303.78
2023-03-26T06:37:50.990Z,95310.31
2023-03-26T06:40:54.796Z,95303.66
2023-03-26T06:44:02.609Z,95304.69
2023-03-26T06:47:23.962Z,95307.06
2023-03-26T06:50:49.574Z,95297.44
2023-03-26T06:54:28.178Z,95290.66
2023-03-26T06:57:58.460Z,95297.31
2023-03-26T07:01:27.290Z,95288.88
2023-03-26T07:05:01.120Z,95286.72
2023-03-26T07:08:26.485Z,95280.59
2023-03-26T07:11:49.254Z,95280.09
2023-03-26T07:15:32.932Z,95285.25
2023-03-26T07:19:18.694Z,95271.66
2023-03-26T07:22:34.176Z,95264.16
2023-03-26T07:25:51.443Z,95251.72
2023-03-26T07:29:18.652Z,95229.81
2023-03-26T07:33:03.818Z,95235.47
2023-03-26T07:36:37.479Z,95226.66
2023-03-26T07:40:42.016Z,95213.38
2023-03-26T07:44:34.085Z,95198.94
2023-03-26T07:47:58.266Z,95195.94
2023-03-26T07:51:18.781Z,95186.13
2023-03-26T07:54:42.523Z,95185.00
2023-03-26T07:58:17.836Z,95168.88
2023-03-26T08:02:18.078Z,95164.06
2023-03-26T08:05:35.526Z,95154.25
2023-03-26T08:09:24.730Z,95139.63
2023-03-26T08:13:09.687Z,95135.81
2023-03-26T08:16:23.733Z,95136.63
2023-03-26T08:20:09.698Z,95132.81
2023-03-26T08:23:19.342Z,95119.53
2023-03-26T08:26:38.785Z,95121.38
2023-03-26T08:30:12.894Z,95130.47
2023-03-26T08:33:22.287Z,95139.78
2023-03-26T08:36:29.484Z,95127.66
2023-03-26T08:39:34.421Z,95130.31
2023-03-26T08:49:38.478Z,95107.03
2023-03-26T08:52:47.393Z,95114.66
2023-03-26T08:56:15.593Z,95119.63
2023-03-26T09:00:33.838Z,95122.97
2023-03-26T09:04:11.302Z,95107.84
2023-03-26T09:08:08.083Z,95110.34
2023-03-26T09:11:30.217Z,95104.84
2023-03-26T09:14:52.701Z,95103.19
2023-03-26T09:18:14.126Z,95089.59
2023-03-26T09:21:38.644Z,95084.44
2023-03-26T09:24:41.844Z,95092.72
2023-03-26T09:28:06.826Z,95099.22
2023-03-26T09:31:52.748Z,95102.91
2023-03-26T09:35:13.655Z,95099.22
2023-03-26T09:38:42.702Z,95095.75
2023-03-26T09:42:27.273Z,95088.78
2023-03-26T09:45:47.276Z,95084.28
2023-03-26T09:49:12.806Z,95076.94
2023-03-26T09:52:46.399Z,95063.66
2023-03-26T09:56:44.532Z,95057.34
2023-03-26T10:00:40.846Z,95050.19
2023-03-26T10:04:11.157Z,95042.06
2023-03-26T10:07:34.543Z,95037.56
2023-03-26T10:11:05.494Z,95023.13
2023-03-26T10:14:28.411Z,95006.09
2023-03-26T10:18:27.028Z,95002.56
2023-03-26T10:21:46.614Z,95004.03
2023-03-26T10:25:47.268Z,95018.28
2023-03-26T10:29:09.673Z,95028.41
2023-03-26T10:32:40.583Z,95024.41
2023-03-26T10:36:12.108Z,95026.41
2023-03-26T10:39:36.886Z,95020.09
2023-03-26T10:43:12.802Z,95023.38
2023-03-26T10:47:04.525Z,95019.88
2023-03-26T10:50:29.639Z,95006.25
2023-03-26T10:53:48.253Z,95017.56
2023-03-26T10:56:56.412Z,95013.06
2023-03-26T11:00:13.507Z,95009.31
2023-03-26T11:03:39.493Z,95002.28
2023-03-26T11:06:51.400Z,95012.72
2023-03-26T11:10:19.198Z,95016.69
2023-03-26T11:13:46.903Z,95031.16
2023-03-26T11:17:39.805Z,95016.97
2023-03-26T11:21:19.403Z,95004.59
2023-03-26T11:24:47.957Z,94987.06
2023-03-26T11:27:55.159Z,94978.91
2023-03-26T11:31:19.394Z,94966.41
2023-03-26T11:34:32.760Z,94958.69
2023-03-26T11:37:52.242Z,94959.81
2023-03-26T11:40:59.127Z,94960.63
2023-03-26T11:44:37.742Z,94966.22
2023-03-26T11:47:49.411Z,94966.53
2023-03-26T11:51:04.556Z,94963.16
2023-03-26T11:54:10.849Z,94954.41
2023-03-26T11:57:29.568Z,94951.50
2023-03-26T12:00:38.676Z,94952.69
2023-03-26T12:03:51.698Z,94940.09
2023-03-26T12:07:18.504Z,94944.03
2023-03-26T12:10:41.317Z,94955.00
2023-03-26T12:13:58.523Z,94953.03
2023-03-26T12:17:08.466Z,94960.22
2023-03-26T12:20:25.532Z,94965.66
2023-03-26T12:24:12.647Z,95022.44
2023-03-26T12:27:29.013Z,95038.81
2023-03-26T12:30:40.673Z,95031.53
2023-03-26T12:33:43.342Z,95030.84
2023-03-26T12:37:05.605Z,95039.63
2023-03-26T12:40:33.153Z,95024.59
2023-03-26T12:44:56.035Z,95039.97
2023-03-26T12:47:57.193Z,95051.19
2023-03-26T12:50:59.246Z,95017.97
2023-03-26T12:54:19.061Z,94999.78
2023-03-26T12:57:34.585Z,94994.75
2023-03-26T13:00:55.678Z,94953.78
2023-03-26T13:04:25.340Z,94943.00
2023-03-26T13:07:42.536Z,94950.47
2023-03-26T13:11:03.965Z,94952.97
2023-03-26T13:14:17.789Z,94958.13
2023-03-26T13:17:45.958Z,94995.81
2023-03-26T13:20:54.141Z,95058.44
2023-03-26T13:24:28.111Z,95047.53
2023-03-26T13:27:52.814Z,95034.88
2023-03-26T13:31:17.517Z,95027.72
2023-03-26T13:34:38.137Z,95006.19
2023-03-26T13:38:12.793Z,94951.47
2023-03-26T13:41:32.604Z,94950.97
2023-03-26T13:44:50.065Z,94928.41
2023-03-26T13:47:55.713Z,94907.72
2023-03-26T13:51:15.393Z,94895.06
2023-03-26T13:54:21.569Z,94882.28
2023-03-26T13:57:33.769Z,94876.13
2023-03-26T14:00:54.504Z,94869.72
2023-03-26T14:04:22.645Z,94871.34
2023-03-26T14:07:32.305Z,94863.47
2023-03-26T14:11:04.304Z,94847.41
2023-03-26T14:14:26.691Z,94835.34
2023-03-26T14:17:38.530Z,94841.94
2023-03-26T14:21:08.206Z,94845.22
2023-03-26T14:24:54.092Z,94840.69
2023-03-26T14:28:19.160Z,94841.66
2023-03-26T14:31:42.625Z,94840.22
2023-03-26T14:35:09.844Z,94829.94
2023-03-26T14:38:47.029Z,94819.34
2023-03-26T14:41:57.206Z,94814.72
2023-03-26T14:45:23.756Z,94813.81
2023-03-26T14:48:48.142Z,94817.56
2023-03-26T14:52:10.286Z,94812.28
2023-03-26T14:55:48.627Z,94806.56
2023-03-26T14:59:17.294Z,94803.75
2023-03-26T15:02:37.586Z,94795.78
2023-03-26T15:06:19.694Z,94786.75
2023-03-26T15:10:11.069Z,94804.66
2023-03-26T15:13:32.270Z,94798.28
2023-03-26T15:17:29.005Z,94796.69
2023-03-26T15:20:52.236Z,94793.59
2023-03-26T15:24:24.716Z,94792.53
2023-03-26T15:28:08.297Z,94790.63
2023-03-26T15:31:47.670Z,94808.25
2023-03-26T15:34:54.716Z,94799.78
2023-03-26T15:38:46.870Z,94784.91
2023-03-26T15:42:03.977Z,94794.88
2023-03-26T15:45:27.928Z,94777.44
2023-03-26T15:48:42.491Z,94788.81
2023-03-26T15:51:59.011Z,94786.63
2023-03-26T15:55:16.126Z,94792.41
2023-03-26T15:58:21.324Z,94799.56
2023-03-26T16:02:03.852Z,94786.16
2023-03-26T16:05:09.401Z,94790.47
2023-03-26T16:09:00.550Z,94781.44
2023-03-26T16:12:14.496Z,94798.25
2023-03-26T16:15:32.040Z,94805.16
2023-03-26T16:18:41.333Z,94798.72
2023-03-26T16:22:04.539Z,94804.81
2023-03-26T16:25:27.641Z,94804.06
2023-03-26T16:29:02.287Z,94800.81
2023-03-26T16:32:09.683Z,94787.13
2023-03-26T16:35:17.116Z,94802.44
2023-03-26T16:38:21.644Z,94798.44
2023-03-26T16:41:28.765Z,94800.78
2023-03-26T16:44:37.664Z,94800.28
2023-03-26T16:47:58.003Z,94805.09
2023-03-26T16:51:37.313Z,94812.84
2023-03-26T16:55:01.416Z,94802.09
2023-03-26T16:58:15.442Z,94804.06
2023-03-26T17:01:35.382Z,94806.81
2023-03-26T17:04:38.335Z,94804.44
2023-03-26T17:08:02.909Z,94804.84
2023-03-26T17:11:09.604Z,94812.34
2023-03-26T17:14:28.486Z,94814.28
2023-03-26T17:17:39.142Z,94829.19
2023-03-26T17:21:03.718Z,94836.09
2023-03-26T17:24:26.705Z,94841.31
2023-03-26T17:28:12.478Z,94844.91
2023-03-26T17:31:27.310Z,94863.97
2023-03-26T17:34:38.456Z,94869.78
2023-03-26T17:37:45.210Z,94871.75
2023-03-26T17:40:58.880Z,94857.06
2023-03-26T17:44:04.695Z,94857.13
2023-03-26T17:47:16.608Z,94869.50
2023-03-26T17:50:27.301Z,94864.72
2023-03-26T17:53:34.570Z,94878.69
2023-03-26T17:56:38.148Z,94865.13
2023-03-26T17:59:43.791Z,94869.84
2023-03-26T18:03:00.009Z,94882.50
2023-03-26T18:06:18.077Z,94882.53
2023-03-26T18:09:37.768Z,94894.88
2023-03-26T18:12:40.762Z,94900.19
2023-03-26T18:16:21.190Z,94897.22
2023-03-26T18:19:23.807Z,94894.25
2023-03-26T18:22:27.704Z,94891.28
2023-03-26T18:25:33.751Z,94892.66
2023-03-26T18:28:41.554Z,94899.97
2023-03-26T18:31:44.015Z,94901.13
2023-03-26T18:34:52.682Z,94892.69
2023-03-26T18:37:59.981Z,94899.16
2023-03-26T18:41:01.880Z,94893.06
2023-03-26T18:44:06.501Z,94882.78
2023-03-26T18:47:09.679Z,94888.28
2023-03-26T18:50:17.868Z,94878.34
2023-03-26T18:53:25.759Z,94886.63
2023-03-26T18:56:29.153Z,94891.47
2023-03-26T18:59:35.167Z,94890.84
2023-03-26T19:02:40.092Z,94903.78
2023-03-26T19:05:41.841Z,94901.47
2023-03-26T19:08:46.262Z,94903.66
2023-03-26T19:11:51.120Z,94900.16
2023-03-26T19:15:09.860Z,94902.47
2023-03-26T19:18:18.665Z,94910.63
2023-03-26T19:21:23.289Z,94908.13
2023-03-26T19:24:25.664Z,94895.88
2023-03-26T19:27:27.648Z,94891.06
2023-03-26T19:30:32.780Z,94900.50
2023-03-26T19:33:37.278Z,94894.53
2023-03-26T19:36:52.580Z,94886.91
2023-03-26T19:40:00.350Z,94893.53
2023-03-26T19:43:04.405Z,94889.44
2023-03-26T19:46:06.432Z,94891.91
2023-03-26T19:49:22.892Z,94907.00
2023-03-26T19:52:26.063Z,94907.00
2023-03-26T19:55:30.181Z,94905.19
2023-03-26T19:58:31.857Z,94911.50
2023-03-26T20:01:36.925Z,94906.50
2023-03-26T20:04:38.971Z,94907.84
2023-03-26T20:07:40.557Z,94902.03
2023-03-26T20:10:43.227Z,94905.88
2023-03-26T20:13:44.916Z,94913.50
2023-03-26T20:16:48.589Z,94916.50
2023-03-26T20:19:50.236Z,94920.47
2023-03-26T20:22:53.925Z,94926.13
2023-03-26T20:25:56.073Z,94923.63
2023-03-26T20:28:58.923Z,94917.50
2023-03-26T20:32:00.849Z,94910.84
2023-03-26T20:35:02.466Z,94922.78
2023-03-26T20:38:05.314Z,94914.00
2023-03-26T20:41:12.685Z,94918.63
2023-03-26T20:44:20.067Z,94913.34
2023-03-26T20:47:21.685Z,94915.50
2023-03-26T20:50:26.699Z,94907.56
2023-03-26T20:53:30.436Z,94894.13
2023-03-26T20:56:32.816Z,94891.63
2023-03-26T20:59:34.625Z,94898.91
2023-03-26T21:02:37.035Z,94901.22
2023-03-26T21:05:40.864Z,94903.53
2023-03-26T21:08:44.435Z,94911.13
2023-03-26T21:12:08.084Z,94916.13
2023-03-26T21:15:22.448Z,94923.25
2023-03-26T21:18:28.908Z,94930.50
2023-03-26T21:22:07.274Z,94935.84
2023-03-26T21:25:15.353Z,94933.50
2023-03-26T21:28:35.821Z,94928.50
2023-03-26T21:31:43.657Z,94925.69
2023-03-26T21:34:55.776Z,94928.03
2023-03-26T21:38:01.522Z,94924.00
2023-03-26T21:41:03.771Z,94924.19
2023-03-26T21:44:05.755Z,94925.50
2023-03-26T21:47:09.773Z,94925.66
2023-03-26T21:50:14.633Z,94932.81
2023-03-26T21:53:16.664Z,94924.19
2023-03-26T21:56:42.911Z,94928.81
2023-03-26T22:00:08.286Z,94928.31
2023-03-26T22:03:13.703Z,94929.94
2023-03-26T22:06:31.330Z,94939.91
2023-03-26T22:09:36.150Z,94929.28
2023-03-26T22:12:38.236Z,94931.44
2023-03-26T22:15:39.918Z,94922.31
2023-03-26T22:18:43.696Z,94925.47
2023-03-26T22:21:45.492Z,94925.63
2023-03-26T22:24:47.089Z,94927.44
2023-03-26T22:27:49.941Z,94923.97
2023-03-26T22:30:52.241Z,94920.50
2023-03-26T22:33:54.978Z,94929.56
2023-03-26T22:36:56.511Z,94935.84
2023-03-26T22:39:58.147Z,94935.84
2023-03-26T22:42:59.707Z,94931.88
2023-03-26T22:46:01.340Z,94932.72
2023-03-26T22:49:03.263Z,94931.72
2023-03-26T22:52:04.884Z,94927.41
2023-03-26T22:55:07.199Z,94927.41
2023-03-26T22:58:09.467Z,94918.94
2023-03-26T23:01:21.728Z,94924.25
2023-03-26T23:04:31.271Z,94916.94
2023-03-26T23:07:34.296Z,94915.28
2023-03-26T23:10:39.470Z,94916.31
2023-03-26T23:13:42.346Z,94907.84
2023-03-26T23:16:45.986Z,94906.31
2023-03-26T23:19:53.147Z,94905.50
2023-03-26T23:22:54.865Z,94919.56
2023-03-26T23:25:59.503Z,94912.63
2023-03-26T23:29:02.112Z,94909.47
2023-03-26T23:32:03.859Z,94909.28
2023-03-26T23:35:27.469Z,94912.59
2023-03-26T23:38:43.442Z,94909.13
2023-03-26T23:41:46.132Z,94907.47
2023-03-26T23:44:47.822Z,94910.09
2023-03-26T23:47:49.423Z,94906.47
2023-03-26T23:50:53.215Z,94891.72
2023-03-26T23:54:05.182Z,94888.25
2023-03-26T23:57:07.631Z,94881.63
